DLH7CE EDDF-ESGG
Flight info
| Callsign | DLH7CE |
|---|---|
| Flight time | 1h 20m |
| Altitude | 35000 |
| Route | MARUN3W/25C MARUN Y150 TOLGI DCT BAGOS DCT ROKAM/N0446F340 L997 RISMA RISMA3S |
| Aircraft | A321/M-SDE3FGHIRWY/LB1 |
Departure
| Time | 2026-05-04 18:17 |
|---|---|
| Airport | Frankfurt Main Airport (EDDF) |
Arrival
| Time | 2026-05-04 19:37 |
|---|---|
| Airport | Göteborg Landvetter Airport (ESGG) |
| Time | Latitude | Longitude | Altitude | Speed | Heading |
|---|---|---|---|---|---|
| 2026-05-04 17:42 | 50.04884 | 8.57153 | 356 ft | 0 kts | 161° |
| 2026-05-04 18:11 | 50.04882 | 8.57153 | 356 ft | 0 kts | 165° |
| 2026-05-04 18:11 | 50.04874 | 8.57144 | 356 ft | 3 kts | 217° |
| 2026-05-04 18:11 | 50.04856 | 8.57097 | 358 ft | 7 kts | 237° |
| 2026-05-04 18:11 | 50.04807 | 8.57044 | 358 ft | 10 kts | 206° |
| 2026-05-04 18:12 | 50.04741 | 8.56996 | 358 ft | 12 kts | 205° |
| 2026-05-04 18:12 | 50.04651 | 8.56932 | 364 ft | 15 kts | 201° |
| 2026-05-04 18:12 | 50.04550 | 8.56892 | 362 ft | 14 kts | 193° |
| 2026-05-04 18:12 | 50.04458 | 8.56858 | 359 ft | 14 kts | 192° |
| 2026-05-04 18:13 | 50.04354 | 8.56828 | 360 ft | 17 kts | 190° |
| 2026-05-04 18:13 | 50.04276 | 8.56879 | 360 ft | 15 kts | 95° |
| 2026-05-04 18:13 | 50.04360 | 8.57256 | 363 ft | 20 kts | 70° |
| 2026-05-04 18:14 | 50.04410 | 8.57464 | 361 ft | 21 kts | 70° |
| 2026-05-04 18:14 | 50.04438 | 8.57589 | 365 ft | 4 kts | 85° |
| 2026-05-04 18:14 | 50.04416 | 8.57641 | 366 ft | 10 kts | 148° |
| 2026-05-04 18:15 | 50.04268 | 8.57672 | 368 ft | 9 kts | 242° |
| 2026-05-04 18:15 | 50.04262 | 8.57647 | 366 ft | 0 kts | 250° |
| 2026-05-04 18:16 | 50.04244 | 8.57573 | 365 ft | 31 kts | 249° |
| 2026-05-04 18:16 | 50.04087 | 8.56908 | 362 ft | 98 kts | 250° |
| 2026-05-04 18:16 | 50.03779 | 8.55620 | 352 ft | 153 kts | 250° |
| 2026-05-04 18:17 | 50.02972 | 8.52293 | 1471 ft | 159 kts | 252° |
| 2026-05-04 18:17 | 50.02551 | 8.50644 | 1911 ft | 172 kts | 243° |
| 2026-05-04 18:17 | 50.00609 | 8.48164 | 2627 ft | 196 kts | 196° |
| 2026-05-04 18:18 | 49.99239 | 8.47800 | 3014 ft | 206 kts | 188° |
| 2026-05-04 18:18 | 49.97800 | 8.47481 | 3465 ft | 211 kts | 188° |
| 2026-05-04 18:18 | 49.96371 | 8.47158 | 3996 ft | 210 kts | 189° |
| 2026-05-04 18:18 | 49.94934 | 8.46556 | 4361 ft | 220 kts | 196° |
| 2026-05-04 18:19 | 49.91977 | 8.44829 | 5078 ft | 241 kts | 218° |
| 2026-05-04 18:19 | 49.90942 | 8.42768 | 5639 ft | 247 kts | 246° |
| 2026-05-04 18:19 | 49.90636 | 8.40146 | 6285 ft | 252 kts | 273° |
| 2026-05-04 18:20 | 49.91192 | 8.37554 | 6881 ft | 260 kts | 302° |
| 2026-05-04 18:20 | 49.92539 | 8.35670 | 7463 ft | 267 kts | 331° |
| 2026-05-04 18:20 | 49.94256 | 8.34489 | 7808 ft | 283 kts | 335° |
| 2026-05-04 18:20 | 49.96110 | 8.33290 | 8246 ft | 292 kts | 335° |
| 2026-05-04 18:21 | 49.97998 | 8.32082 | 8840 ft | 295 kts | 335° |
| 2026-05-04 18:21 | 49.99906 | 8.30859 | 9460 ft | 298 kts | 335° |
| 2026-05-04 18:21 | 50.01834 | 8.29624 | 10054 ft | 301 kts | 336° |
| 2026-05-04 18:21 | 50.03893 | 8.28785 | 10407 ft | 316 kts | 350° |
| 2026-05-04 18:22 | 50.06163 | 8.28744 | 10532 ft | 338 kts | 6° |
| 2026-05-04 18:22 | 50.08500 | 8.29651 | 10660 ft | 356 kts | 18° |
| 2026-05-04 18:22 | 50.10888 | 8.30928 | 10920 ft | 367 kts | 18° |
| 2026-05-04 18:22 | 50.13325 | 8.32221 | 11392 ft | 372 kts | 18° |
| 2026-05-04 18:23 | 50.15790 | 8.33517 | 11906 ft | 376 kts | 18° |
| 2026-05-04 18:23 | 50.18207 | 8.34963 | 12418 ft | 379 kts | 28° |
| 2026-05-04 18:23 | 50.20471 | 8.37104 | 12939 ft | 382 kts | 32° |
| 2026-05-04 18:23 | 50.22733 | 8.39323 | 13473 ft | 385 kts | 32° |
| 2026-05-04 18:24 | 50.25007 | 8.41558 | 13980 ft | 388 kts | 32° |
| 2026-05-04 18:24 | 50.27300 | 8.43814 | 14435 ft | 391 kts | 32° |
| 2026-05-04 18:24 | 50.29606 | 8.46090 | 14890 ft | 393 kts | 32° |
| 2026-05-04 18:24 | 50.31925 | 8.48384 | 15341 ft | 396 kts | 32° |
| 2026-05-04 18:25 | 50.34258 | 8.50690 | 15795 ft | 398 kts | 32° |
| 2026-05-04 18:25 | 50.36604 | 8.53007 | 16268 ft | 400 kts | 32° |
| 2026-05-04 18:25 | 50.38962 | 8.55336 | 16708 ft | 402 kts | 32° |
| 2026-05-04 18:25 | 50.41336 | 8.57685 | 17144 ft | 405 kts | 32° |
| 2026-05-04 18:26 | 50.43726 | 8.60059 | 17573 ft | 408 kts | 32° |
| 2026-05-04 18:26 | 50.46128 | 8.62447 | 17990 ft | 410 kts | 32° |
| 2026-05-04 18:26 | 50.48516 | 8.64819 | 18372 ft | 413 kts | 32° |
| 2026-05-04 18:26 | 50.50952 | 8.67245 | 18714 ft | 415 kts | 32° |
| 2026-05-04 18:27 | 50.53396 | 8.69682 | 19069 ft | 418 kts | 32° |
| 2026-05-04 18:27 | 50.55858 | 8.72139 | 19442 ft | 420 kts | 31° |
| 2026-05-04 18:27 | 50.58329 | 8.74607 | 19810 ft | 422 kts | 31° |
| 2026-05-04 18:27 | 50.60815 | 8.77096 | 20165 ft | 424 kts | 31° |
| 2026-05-04 18:28 | 50.63313 | 8.79600 | 20526 ft | 427 kts | 31° |
| 2026-05-04 18:28 | 50.65823 | 8.82124 | 20869 ft | 429 kts | 31° |
| 2026-05-04 18:28 | 50.68346 | 8.84661 | 21211 ft | 431 kts | 31° |
| 2026-05-04 18:28 | 50.70882 | 8.87214 | 21554 ft | 434 kts | 31° |
| 2026-05-04 18:29 | 50.73396 | 8.89747 | 21887 ft | 436 kts | 31° |
| 2026-05-04 18:29 | 50.75957 | 8.92332 | 22218 ft | 438 kts | 31° |
| 2026-05-04 18:29 | 50.78531 | 8.94933 | 22556 ft | 440 kts | 31° |
| 2026-05-04 18:29 | 50.81117 | 8.97545 | 22883 ft | 442 kts | 31° |
| 2026-05-04 18:30 | 50.86334 | 9.02816 | 23533 ft | 447 kts | 31° |
| 2026-05-04 18:30 | 50.88958 | 9.05483 | 23811 ft | 450 kts | 31° |
| 2026-05-04 18:30 | 50.91594 | 9.08169 | 23998 ft | 451 kts | 31° |
| 2026-05-04 18:31 | 50.94239 | 9.10863 | 24280 ft | 453 kts | 31° |
| 2026-05-04 18:31 | 50.96862 | 9.13533 | 24544 ft | 455 kts | 31° |
| 2026-05-04 18:31 | 50.99534 | 9.16256 | 24813 ft | 457 kts | 31° |
| 2026-05-04 18:31 | 51.02215 | 9.18993 | 25092 ft | 460 kts | 31° |
| 2026-05-04 18:32 | 51.04911 | 9.21755 | 25352 ft | 462 kts | 31° |
| 2026-05-04 18:32 | 51.07616 | 9.24535 | 25623 ft | 464 kts | 31° |
| 2026-05-04 18:32 | 51.10426 | 9.27046 | 25862 ft | 464 kts | 22° |
| 2026-05-04 18:32 | 51.13440 | 9.28871 | 26111 ft | 463 kts | 13° |
| 2026-05-04 18:33 | 51.16576 | 9.30045 | 26362 ft | 464 kts | 9° |
| 2026-05-04 18:33 | 51.19739 | 9.31120 | 26619 ft | 466 kts | 9° |
| 2026-05-04 18:33 | 51.22911 | 9.32211 | 26901 ft | 467 kts | 9° |
| 2026-05-04 18:33 | 51.26050 | 9.33301 | 27167 ft | 469 kts | 9° |
| 2026-05-04 18:34 | 51.29282 | 9.34428 | 27418 ft | 470 kts | 9° |
| 2026-05-04 18:34 | 51.32444 | 9.35532 | 27663 ft | 472 kts | 9° |
| 2026-05-04 18:34 | 51.35661 | 9.36656 | 27892 ft | 474 kts | 9° |
| 2026-05-04 18:34 | 51.38890 | 9.37786 | 28153 ft | 476 kts | 9° |
| 2026-05-04 18:35 | 51.42132 | 9.38919 | 28388 ft | 478 kts | 8° |
| 2026-05-04 18:35 | 51.45384 | 9.40058 | 28631 ft | 479 kts | 8° |
| 2026-05-04 18:35 | 51.48648 | 9.41201 | 28852 ft | 481 kts | 8° |
| 2026-05-04 18:35 | 51.51926 | 9.42349 | 29066 ft | 483 kts | 8° |
| 2026-05-04 18:36 | 51.55212 | 9.43503 | 29291 ft | 484 kts | 8° |
| 2026-05-04 18:36 | 51.58513 | 9.44667 | 29464 ft | 486 kts | 8° |
| 2026-05-04 18:36 | 51.61776 | 9.45818 | 29654 ft | 488 kts | 8° |
| 2026-05-04 18:36 | 51.65094 | 9.46988 | 29884 ft | 488 kts | 8° |
| 2026-05-04 18:37 | 51.68411 | 9.48158 | 30159 ft | 488 kts | 8° |
| 2026-05-04 18:37 | 51.71725 | 9.49329 | 30379 ft | 487 kts | 8° |
| 2026-05-04 18:37 | 51.75034 | 9.50503 | 30589 ft | 487 kts | 8° |
| 2026-05-04 18:37 | 51.78343 | 9.51678 | 30811 ft | 487 kts | 8° |
| 2026-05-04 18:38 | 51.81648 | 9.52853 | 31030 ft | 487 kts | 9° |
| 2026-05-04 18:38 | 51.84899 | 9.54439 | 31241 ft | 490 kts | 17° |
| 2026-05-04 18:38 | 51.88059 | 9.56308 | 31462 ft | 490 kts | 17° |
| 2026-05-04 18:38 | 51.91255 | 9.58203 | 31679 ft | 489 kts | 17° |
| 2026-05-04 18:39 | 51.94454 | 9.60102 | 31886 ft | 489 kts | 17° |
| 2026-05-04 18:39 | 51.97647 | 9.62006 | 32085 ft | 489 kts | 17° |
| 2026-05-04 18:39 | 52.00837 | 9.63916 | 32306 ft | 489 kts | 17° |
| 2026-05-04 18:39 | 52.04026 | 9.65830 | 32524 ft | 488 kts | 17° |
| 2026-05-04 18:40 | 52.07210 | 9.67740 | 32732 ft | 488 kts | 17° |
| 2026-05-04 18:40 | 52.10395 | 9.69650 | 32928 ft | 488 kts | 17° |
| 2026-05-04 18:40 | 52.13575 | 9.71557 | 33152 ft | 487 kts | 16° |
| 2026-05-04 18:40 | 52.16752 | 9.73465 | 33372 ft | 486 kts | 16° |
| 2026-05-04 18:41 | 52.19923 | 9.75375 | 33575 ft | 486 kts | 16° |
| 2026-05-04 18:41 | 52.23095 | 9.77285 | 33783 ft | 485 kts | 16° |
| 2026-05-04 18:41 | 52.26218 | 9.79164 | 33970 ft | 485 kts | 16° |
| 2026-05-04 18:41 | 52.29381 | 9.81069 | 34144 ft | 484 kts | 16° |
| 2026-05-04 18:42 | 52.32541 | 9.82980 | 34307 ft | 484 kts | 17° |
| 2026-05-04 18:42 | 52.35694 | 9.84891 | 34505 ft | 483 kts | 16° |
| 2026-05-04 18:42 | 52.38849 | 9.86805 | 34661 ft | 483 kts | 16° |
| 2026-05-04 18:42 | 52.41995 | 9.88719 | 34836 ft | 482 kts | 16° |
| 2026-05-04 18:43 | 52.45139 | 9.90637 | 34949 ft | 482 kts | 17° |
| 2026-05-04 18:43 | 52.51415 | 9.94476 | 34974 ft | 481 kts | 17° |
| 2026-05-04 18:44 | 52.57685 | 9.98307 | 34977 ft | 481 kts | 17° |
| 2026-05-04 18:44 | 52.63911 | 10.02117 | 34975 ft | 481 kts | 16° |
| 2026-05-04 18:45 | 52.70178 | 10.05978 | 34974 ft | 481 kts | 16° |
| 2026-05-04 18:45 | 52.76441 | 10.09848 | 34970 ft | 481 kts | 16° |
| 2026-05-04 18:46 | 52.82705 | 10.13739 | 34997 ft | 481 kts | 16° |
| 2026-05-04 18:46 | 52.88960 | 10.17627 | 34998 ft | 480 kts | 16° |
| 2026-05-04 18:47 | 52.95175 | 10.21501 | 34995 ft | 480 kts | 16° |
| 2026-05-04 18:47 | 53.01422 | 10.25412 | 34995 ft | 480 kts | 16° |
| 2026-05-04 18:48 | 53.07668 | 10.29326 | 34992 ft | 480 kts | 16° |
| 2026-05-04 18:48 | 53.13915 | 10.33258 | 34983 ft | 480 kts | 16° |
| 2026-05-04 18:49 | 53.20113 | 10.37171 | 34980 ft | 480 kts | 16° |
| 2026-05-04 18:49 | 53.26356 | 10.41122 | 34979 ft | 480 kts | 16° |
| 2026-05-04 18:50 | 53.32593 | 10.45084 | 35004 ft | 479 kts | 16° |
| 2026-05-04 18:50 | 53.38818 | 10.49049 | 34995 ft | 478 kts | 16° |
| 2026-05-04 18:51 | 53.45025 | 10.53020 | 34992 ft | 478 kts | 16° |
| 2026-05-04 18:51 | 53.51233 | 10.57011 | 34995 ft | 477 kts | 16° |
| 2026-05-04 18:52 | 53.57384 | 10.60969 | 35006 ft | 476 kts | 16° |
| 2026-05-04 18:52 | 53.63564 | 10.64945 | 35005 ft | 474 kts | 16° |
| 2026-05-04 18:53 | 53.69718 | 10.68926 | 35003 ft | 473 kts | 16° |
| 2026-05-04 18:53 | 53.75860 | 10.72917 | 35000 ft | 473 kts | 16° |
| 2026-05-04 18:54 | 53.81952 | 10.76883 | 35012 ft | 472 kts | 16° |
| 2026-05-04 18:54 | 53.88069 | 10.80879 | 35004 ft | 471 kts | 16° |
| 2026-05-04 18:55 | 53.94179 | 10.84890 | 35001 ft | 471 kts | 16° |
| 2026-05-04 18:55 | 54.03337 | 10.90917 | 35015 ft | 471 kts | 16° |
| 2026-05-04 18:56 | 54.09401 | 10.94917 | 35010 ft | 470 kts | 16° |
| 2026-05-04 18:56 | 54.15500 | 10.98961 | 35008 ft | 470 kts | 16° |
| 2026-05-04 18:57 | 54.21592 | 11.03019 | 35005 ft | 470 kts | 16° |
| 2026-05-04 18:57 | 54.27684 | 11.07091 | 35025 ft | 470 kts | 16° |
| 2026-05-04 18:58 | 54.33779 | 11.11154 | 35013 ft | 470 kts | 16° |
| 2026-05-04 18:58 | 54.39833 | 11.15203 | 35015 ft | 470 kts | 16° |
| 2026-05-04 18:59 | 54.45922 | 11.19300 | 35005 ft | 470 kts | 16° |
| 2026-05-04 18:59 | 54.52014 | 11.23425 | 35012 ft | 471 kts | 17° |
| 2026-05-04 19:00 | 54.58130 | 11.27431 | 35005 ft | 467 kts | 11° |
| 2026-05-04 19:00 | 54.64368 | 11.30556 | 35000 ft | 467 kts | 11° |
| 2026-05-04 19:01 | 54.70574 | 11.33666 | 34999 ft | 467 kts | 11° |
| 2026-05-04 19:01 | 54.76816 | 11.36820 | 35016 ft | 467 kts | 12° |
| 2026-05-04 19:02 | 54.83059 | 11.39982 | 35009 ft | 467 kts | 12° |
| 2026-05-04 19:02 | 54.89298 | 11.43146 | 35003 ft | 467 kts | 12° |
| 2026-05-04 19:03 | 54.95537 | 11.46328 | 34999 ft | 467 kts | 12° |
| 2026-05-04 19:03 | 55.01727 | 11.49485 | 35016 ft | 466 kts | 12° |
| 2026-05-04 19:04 | 55.07933 | 11.52668 | 35008 ft | 464 kts | 12° |
| 2026-05-04 19:04 | 55.14120 | 11.55840 | 35000 ft | 463 kts | 12° |
| 2026-05-04 19:05 | 55.20293 | 11.59019 | 34996 ft | 462 kts | 12° |
| 2026-05-04 19:05 | 55.26455 | 11.62216 | 35017 ft | 461 kts | 13° |
| 2026-05-04 19:06 | 55.32554 | 11.65387 | 34999 ft | 460 kts | 13° |
| 2026-05-04 19:06 | 55.38686 | 11.68587 | 35001 ft | 459 kts | 13° |
| 2026-05-04 19:07 | 55.44807 | 11.71791 | 34997 ft | 459 kts | 13° |
| 2026-05-04 19:07 | 55.50926 | 11.74994 | 34988 ft | 458 kts | 13° |
| 2026-05-04 19:08 | 55.57042 | 11.78186 | 34996 ft | 458 kts | 13° |
| 2026-05-04 19:08 | 55.63116 | 11.81393 | 34992 ft | 459 kts | 13° |
| 2026-05-04 19:09 | 55.69236 | 11.84655 | 34984 ft | 460 kts | 13° |
| 2026-05-04 19:09 | 55.75363 | 11.87909 | 35002 ft | 460 kts | 13° |
| 2026-05-04 19:10 | 55.81486 | 11.91159 | 34998 ft | 459 kts | 13° |
| 2026-05-04 19:10 | 55.87596 | 11.94426 | 34988 ft | 458 kts | 13° |
| 2026-05-04 19:11 | 55.93663 | 11.97681 | 34983 ft | 458 kts | 13° |
| 2026-05-04 19:11 | 55.99767 | 12.00962 | 34997 ft | 458 kts | 13° |
| 2026-05-04 19:12 | 56.08904 | 12.05905 | 34981 ft | 457 kts | 13° |
| 2026-05-04 19:12 | 56.11949 | 12.07559 | 34879 ft | 457 kts | 13° |
| 2026-05-04 19:13 | 56.14986 | 12.09207 | 34473 ft | 456 kts | 13° |
| 2026-05-04 19:13 | 56.17965 | 12.10821 | 34017 ft | 452 kts | 13° |
| 2026-05-04 19:13 | 56.20962 | 12.12451 | 33462 ft | 448 kts | 13° |
| 2026-05-04 19:13 | 56.23934 | 12.14078 | 32917 ft | 445 kts | 13° |
| 2026-05-04 19:14 | 56.26880 | 12.15696 | 32398 ft | 442 kts | 13° |
| 2026-05-04 19:14 | 56.29843 | 12.17037 | 31881 ft | 435 kts | 4° |
| 2026-05-04 19:14 | 56.32823 | 12.17538 | 31365 ft | 426 kts | 355° |
| 2026-05-04 19:14 | 56.35752 | 12.17219 | 30859 ft | 418 kts | 347° |
| 2026-05-04 19:15 | 56.38616 | 12.16418 | 30364 ft | 415 kts | 346° |
| 2026-05-04 19:15 | 56.41461 | 12.15621 | 29862 ft | 413 kts | 346° |
| 2026-05-04 19:15 | 56.44249 | 12.14848 | 29296 ft | 410 kts | 346° |
| 2026-05-04 19:15 | 56.47057 | 12.14074 | 28733 ft | 406 kts | 346° |
| 2026-05-04 19:16 | 56.49843 | 12.13306 | 28186 ft | 403 kts | 346° |
| 2026-05-04 19:16 | 56.52606 | 12.12538 | 27642 ft | 401 kts | 346° |
| 2026-05-04 19:16 | 56.55359 | 12.11765 | 27059 ft | 399 kts | 345° |
| 2026-05-04 19:16 | 56.58093 | 12.10993 | 26487 ft | 397 kts | 345° |
| 2026-05-04 19:17 | 56.60819 | 12.10226 | 25929 ft | 395 kts | 346° |
| 2026-05-04 19:17 | 56.63531 | 12.09467 | 25383 ft | 393 kts | 346° |
| 2026-05-04 19:17 | 56.66230 | 12.08710 | 24847 ft | 391 kts | 346° |
| 2026-05-04 19:17 | 56.68913 | 12.07954 | 24313 ft | 389 kts | 346° |
| 2026-05-04 19:18 | 56.71592 | 12.07194 | 23728 ft | 389 kts | 346° |
| 2026-05-04 19:18 | 56.74231 | 12.06444 | 23117 ft | 388 kts | 346° |
| 2026-05-04 19:18 | 56.76894 | 12.05689 | 22515 ft | 386 kts | 346° |
| 2026-05-04 19:18 | 56.79545 | 12.04941 | 21925 ft | 384 kts | 346° |
| 2026-05-04 19:19 | 56.82186 | 12.04238 | 21372 ft | 384 kts | 349° |
| 2026-05-04 19:19 | 56.84875 | 12.04390 | 20805 ft | 389 kts | 359° |
| 2026-05-04 19:19 | 56.87563 | 12.04872 | 20248 ft | 387 kts | 360° |
| 2026-05-04 19:19 | 56.90235 | 12.05364 | 19681 ft | 385 kts | 360° |
| 2026-05-04 19:20 | 56.92901 | 12.05861 | 19076 ft | 385 kts | 360° |
| 2026-05-04 19:20 | 56.95563 | 12.06358 | 18476 ft | 385 kts | 360° |
| 2026-05-04 19:20 | 56.98189 | 12.06846 | 17857 ft | 384 kts | 360° |
| 2026-05-04 19:20 | 57.00842 | 12.07333 | 17186 ft | 383 kts | 360° |
| 2026-05-04 19:21 | 57.03481 | 12.07818 | 16598 ft | 379 kts | 360° |
| 2026-05-04 19:21 | 57.06095 | 12.08299 | 16032 ft | 376 kts | 360° |
| 2026-05-04 19:21 | 57.08684 | 12.08779 | 15488 ft | 372 kts | 359° |
| 2026-05-04 19:21 | 57.11250 | 12.09263 | 14952 ft | 369 kts | 359° |
| 2026-05-04 19:22 | 57.13796 | 12.09741 | 14410 ft | 366 kts | 359° |
| 2026-05-04 19:22 | 57.16311 | 12.10210 | 14011 ft | 359 kts | 359° |
| 2026-05-04 19:22 | 57.18744 | 12.10671 | 13899 ft | 343 kts | 359° |
| 2026-05-04 19:22 | 57.21068 | 12.11113 | 13912 ft | 332 kts | 358° |
| 2026-05-04 19:23 | 57.23338 | 12.11535 | 13510 ft | 331 kts | 358° |
| 2026-05-04 19:23 | 57.25625 | 12.11955 | 12998 ft | 329 kts | 358° |
| 2026-05-04 19:23 | 57.27896 | 12.12373 | 12499 ft | 327 kts | 359° |
| 2026-05-04 19:23 | 57.30158 | 12.12792 | 11996 ft | 326 kts | 359° |
| 2026-05-04 19:24 | 57.32404 | 12.13208 | 11511 ft | 324 kts | 359° |
| 2026-05-04 19:24 | 57.34639 | 12.13625 | 11048 ft | 322 kts | 359° |
| 2026-05-04 19:24 | 57.36866 | 12.14043 | 10578 ft | 321 kts | 359° |
| 2026-05-04 19:24 | 57.39070 | 12.14457 | 10205 ft | 316 kts | 359° |
| 2026-05-04 19:25 | 57.41243 | 12.14865 | 9827 ft | 312 kts | 359° |
| 2026-05-04 19:25 | 57.43385 | 12.15267 | 9443 ft | 307 kts | 359° |
| 2026-05-04 19:25 | 57.45463 | 12.15662 | 9097 ft | 302 kts | 359° |
| 2026-05-04 19:25 | 57.47534 | 12.16058 | 8753 ft | 297 kts | 359° |
| 2026-05-04 19:26 | 57.49575 | 12.16449 | 8344 ft | 292 kts | 359° |
| 2026-05-04 19:26 | 57.51591 | 12.16833 | 7963 ft | 289 kts | 359° |
| 2026-05-04 19:26 | 57.53571 | 12.17206 | 7896 ft | 287 kts | 359° |
| 2026-05-04 19:26 | 57.55553 | 12.17574 | 7897 ft | 283 kts | 359° |
| 2026-05-04 19:27 | 57.57500 | 12.17944 | 7894 ft | 279 kts | 359° |
| 2026-05-04 19:27 | 57.59431 | 12.18315 | 7893 ft | 279 kts | 359° |
| 2026-05-04 19:27 | 57.61359 | 12.18684 | 7920 ft | 278 kts | 359° |
| 2026-05-04 19:27 | 57.63245 | 12.19046 | 7799 ft | 273 kts | 358° |
| 2026-05-04 19:28 | 57.65115 | 12.19406 | 7545 ft | 268 kts | 358° |
| 2026-05-04 19:28 | 57.66962 | 12.19758 | 7286 ft | 266 kts | 358° |
| 2026-05-04 19:28 | 57.68797 | 12.20107 | 7034 ft | 264 kts | 359° |
| 2026-05-04 19:28 | 57.70623 | 12.20459 | 6783 ft | 263 kts | 359° |
| 2026-05-04 19:29 | 57.72436 | 12.20809 | 6537 ft | 261 kts | 359° |
| 2026-05-04 19:29 | 57.74237 | 12.21157 | 6289 ft | 260 kts | 359° |
| 2026-05-04 19:29 | 57.76030 | 12.21503 | 6030 ft | 258 kts | 359° |
| 2026-05-04 19:29 | 57.77817 | 12.21845 | 5760 ft | 258 kts | 359° |
| 2026-05-04 19:30 | 57.79576 | 12.22198 | 5499 ft | 258 kts | 2° |
| 2026-05-04 19:30 | 57.81325 | 12.23093 | 5239 ft | 264 kts | 16° |
| 2026-05-04 19:30 | 57.82962 | 12.24643 | 4990 ft | 262 kts | 21° |
| 2026-05-04 19:30 | 57.84542 | 12.26302 | 4731 ft | 260 kts | 29° |
| 2026-05-04 19:31 | 57.85852 | 12.28663 | 4464 ft | 265 kts | 50° |
| 2026-05-04 19:31 | 57.86690 | 12.31754 | 4196 ft | 268 kts | 72° |
| 2026-05-04 19:31 | 57.86927 | 12.35191 | 3935 ft | 264 kts | 94° |
| 2026-05-04 19:31 | 57.86514 | 12.38486 | 3681 ft | 256 kts | 117° |
| 2026-05-04 19:32 | 57.85551 | 12.41123 | 3442 ft | 243 kts | 140° |
| 2026-05-04 19:32 | 57.84215 | 12.42879 | 3184 ft | 228 kts | 162° |
| 2026-05-04 19:32 | 57.82740 | 12.43554 | 2924 ft | 210 kts | 193° |
| 2026-05-04 19:32 | 57.81524 | 12.42483 | 2674 ft | 189 kts | 230° |
| 2026-05-04 19:33 | 57.80502 | 12.40937 | 2536 ft | 195 kts | 215° |
| 2026-05-04 19:33 | 57.79272 | 12.39838 | 2499 ft | 194 kts | 213° |
| 2026-05-04 19:33 | 57.78099 | 12.38783 | 2507 ft | 181 kts | 214° |
| 2026-05-04 19:33 | 57.76987 | 12.37766 | 2504 ft | 177 kts | 214° |
| 2026-05-04 19:34 | 57.75908 | 12.36780 | 2368 ft | 168 kts | 215° |
| 2026-05-04 19:34 | 57.74865 | 12.35824 | 2178 ft | 166 kts | 214° |
| 2026-05-04 19:34 | 57.73854 | 12.34897 | 1958 ft | 162 kts | 214° |
| 2026-05-04 19:34 | 57.72858 | 12.33988 | 1764 ft | 156 kts | 214° |
| 2026-05-04 19:35 | 57.71918 | 12.33131 | 1541 ft | 144 kts | 214° |
| 2026-05-04 19:35 | 57.71038 | 12.32326 | 1336 ft | 140 kts | 213° |
| 2026-05-04 19:35 | 57.70171 | 12.31532 | 1126 ft | 139 kts | 212° |
| 2026-05-04 19:35 | 57.69300 | 12.30735 | 938 ft | 140 kts | 212° |
| 2026-05-04 19:36 | 57.68431 | 12.29941 | 747 ft | 138 kts | 211° |
| 2026-05-04 19:36 | 57.67574 | 12.29160 | 564 ft | 137 kts | 211° |
| 2026-05-04 19:36 | 57.66803 | 12.28445 | 513 ft | 106 kts | 204° |
| 2026-05-04 19:36 | 57.66322 | 12.28015 | 510 ft | 50 kts | 206° |
| 2026-05-04 19:37 | 57.66052 | 12.27764 | 508 ft | 30 kts | 206° |
| 2026-05-04 19:37 | 57.65859 | 12.27665 | 505 ft | 21 kts | 184° |
| 2026-05-04 19:37 | 57.65760 | 12.27671 | 505 ft | 10 kts | 173° |
| 2026-05-04 19:37 | 57.65710 | 12.27761 | 504 ft | 11 kts | 95° |
| 2026-05-04 19:38 | 57.65762 | 12.27848 | 505 ft | 10 kts | 24° |
| 2026-05-04 19:38 | 57.65827 | 12.27913 | 506 ft | 12 kts | 29° |
| 2026-05-04 19:38 | 57.65929 | 12.28006 | 507 ft | 20 kts | 24° |
| 2026-05-04 19:38 | 57.66047 | 12.28110 | 509 ft | 16 kts | 26° |
| 2026-05-04 19:39 | 57.66148 | 12.28205 | 509 ft | 16 kts | 26° |
| 2026-05-04 19:39 | 57.66252 | 12.28295 | 510 ft | 16 kts | 24° |
| 2026-05-04 19:39 | 57.66356 | 12.28393 | 511 ft | 17 kts | 27° |
| 2026-05-04 19:39 | 57.66463 | 12.28491 | 511 ft | 18 kts | 26° |
| 2026-05-04 19:40 | 57.66575 | 12.28591 | 512 ft | 18 kts | 25° |
| 2026-05-04 19:40 | 57.66690 | 12.28697 | 512 ft | 19 kts | 26° |
| 2026-05-04 19:40 | 57.66800 | 12.28796 | 513 ft | 13 kts | 26° |
| 2026-05-04 19:40 | 57.66821 | 12.28919 | 516 ft | 10 kts | 113° |
| 2026-05-04 19:41 | 57.66791 | 12.29037 | 516 ft | 11 kts | 116° |
| 2026-05-04 19:41 | 57.66757 | 12.29159 | 516 ft | 7 kts | 117° |
| 2026-05-04 19:41 | 57.66737 | 12.29235 | 516 ft | 5 kts | 116° |
| 2026-05-04 19:41 | 57.66730 | 12.29259 | 516 ft | 0 kts | 116° |
| 2026-05-04 19:42 | 57.66730 | 12.29261 | 516 ft | 0 kts | 116° |